DIELE EDGS-LOWG
Flight info
| Callsign | DIELE |
|---|---|
| Flight time | N/A |
| Altitude | 27000 |
| Route | TOBAK2R TOBAK N858 ERSET DCT LEOBE LEOBE2M |
| Aircraft | B60T/L-SDFGRY/C |
Departure
| Time | 2026-04-27 16:17 |
|---|---|
| Airport | Siegerland Airport (EDGS) |
Arrival
| Time | N/A |
|---|---|
| Airport | Graz Airport (LOWG) |
| Time | Latitude | Longitude | Altitude | Speed | Heading |
|---|---|---|---|---|---|
| 2026-04-27 16:10 | 50.70802 | 8.07737 | 1957 ft | 0 kts | 33° |
| 2026-04-27 16:15 | 50.70942 | 8.07559 | 1959 ft | 23 kts | 314° |
| 2026-04-27 16:16 | 50.71110 | 8.07208 | 1963 ft | 6 kts | 328° |
| 2026-04-27 16:16 | 50.71182 | 8.07474 | 1960 ft | 53 kts | 124° |
| 2026-04-27 16:17 | 50.70368 | 8.09135 | 3107 ft | 111 kts | 126° |
| 2026-04-27 16:17 | 50.68985 | 8.11829 | 4343 ft | 189 kts | 127° |
| 2026-04-27 16:18 | 50.67249 | 8.15304 | 5933 ft | 209 kts | 127° |
| 2026-04-27 16:18 | 50.65887 | 8.18040 | 7144 ft | 215 kts | 128° |
| 2026-04-27 16:19 | 50.64970 | 8.19874 | 7923 ft | 217 kts | 128° |
| 2026-04-27 16:19 | 50.64036 | 8.21757 | 8731 ft | 219 kts | 128° |
| 2026-04-27 16:20 | 50.61203 | 8.27436 | 11095 ft | 222 kts | 129° |
| 2026-04-27 16:20 | 50.60397 | 8.29058 | 11606 ft | 143 kts | 129° |
| 2026-04-27 16:20 | 50.59320 | 8.31235 | 10831 ft | 126 kts | 130° |
| 2026-04-27 16:21 | 50.58795 | 8.32273 | 10467 ft | 116 kts | 128° |
| 2026-04-27 16:21 | 50.56806 | 8.36248 | 11695 ft | 186 kts | 129° |
| 2026-04-27 16:22 | 50.56099 | 8.38053 | 12371 ft | 201 kts | 108° |
| 2026-04-27 16:22 | 50.55988 | 8.40938 | 13406 ft | 205 kts | 78° |
| 2026-04-27 16:22 | 50.56418 | 8.43025 | 14391 ft | 197 kts | 58° |
| 2026-04-27 16:23 | 50.56838 | 8.45045 | 15185 ft | 201 kts | 89° |
| 2026-04-27 16:23 | 50.56183 | 8.49602 | 16012 ft | 243 kts | 92° |
| 2026-04-27 16:23 | 50.56255 | 8.52417 | 16015 ft | 268 kts | 82° |
| 2026-04-27 16:24 | 50.56451 | 8.55415 | 16005 ft | 283 kts | 83° |
| 2026-04-27 16:24 | 50.56632 | 8.61762 | 15999 ft | 296 kts | 86° |
| 2026-04-27 16:25 | 50.56836 | 8.68204 | 16001 ft | 296 kts | 85° |
| 2026-04-27 16:25 | 50.57034 | 8.74698 | 15995 ft | 296 kts | 86° |
| 2026-04-27 16:26 | 50.57906 | 8.80903 | 15990 ft | 291 kts | 60° |
| 2026-04-27 16:26 | 50.59789 | 8.86537 | 15995 ft | 291 kts | 60° |
| 2026-04-27 16:27 | 50.61635 | 8.92164 | 15994 ft | 291 kts | 60° |
| 2026-04-27 16:27 | 50.64436 | 9.00672 | 15995 ft | 291 kts | 60° |
| 2026-04-27 16:28 | 50.66289 | 9.06329 | 15999 ft | 291 kts | 60° |
| 2026-04-27 16:28 | 50.68151 | 9.12015 | 16002 ft | 291 kts | 60° |
| 2026-04-27 16:29 | 50.70917 | 9.20493 | 16005 ft | 291 kts | 60° |
| 2026-04-27 16:30 | 50.72762 | 9.26164 | 16007 ft | 291 kts | 60° |
| 2026-04-27 16:30 | 50.74609 | 9.31857 | 16007 ft | 292 kts | 60° |
| 2026-04-27 16:31 | 50.77381 | 9.40416 | 16012 ft | 291 kts | 60° |
| 2026-04-27 16:31 | 50.79209 | 9.46088 | 16011 ft | 290 kts | 60° |
| 2026-04-27 16:32 | 50.81041 | 9.51772 | 16013 ft | 290 kts | 60° |
| 2026-04-27 16:32 | 50.81950 | 9.54601 | 16011 ft | 290 kts | 60° |
| 2026-04-27 16:33 | 50.83777 | 9.60296 | 16014 ft | 290 kts | 61° |
| 2026-04-27 16:33 | 50.84683 | 9.63122 | 16014 ft | 290 kts | 60° |
| 2026-04-27 16:33 | 50.85597 | 9.65979 | 16013 ft | 290 kts | 61° |
| 2026-04-27 16:33 | 50.86511 | 9.68842 | 16017 ft | 290 kts | 61° |
| 2026-04-27 16:34 | 50.87418 | 9.71681 | 16014 ft | 290 kts | 60° |
| 2026-04-27 16:34 | 50.88322 | 9.74517 | 16013 ft | 290 kts | 61° |
| 2026-04-27 16:34 | 50.88929 | 9.76422 | 16016 ft | 290 kts | 61° |
| 2026-04-27 16:34 | 50.90142 | 9.80235 | 16017 ft | 291 kts | 61° |
| 2026-04-27 16:35 | 50.90750 | 9.82146 | 16016 ft | 291 kts | 61° |
| 2026-04-27 16:35 | 50.91665 | 9.85028 | 16018 ft | 290 kts | 61° |
| 2026-04-27 16:35 | 50.93459 | 9.91874 | 16019 ft | 293 kts | 79° |
| 2026-04-27 16:36 | 50.93560 | 9.94059 | 16024 ft | 295 kts | 90° |
| 2026-04-27 16:36 | 50.93257 | 9.97243 | 16024 ft | 296 kts | 106° |
| 2026-04-27 16:36 | 50.92426 | 10.00215 | 16030 ft | 295 kts | 122° |
| 2026-04-27 16:36 | 50.91135 | 10.02728 | 16030 ft | 294 kts | 137° |
| 2026-04-27 16:37 | 50.89669 | 10.04989 | 16029 ft | 294 kts | 137° |
| 2026-04-27 16:37 | 50.88229 | 10.07252 | 16026 ft | 294 kts | 137° |
| 2026-04-27 16:37 | 50.86766 | 10.09543 | 16023 ft | 294 kts | 137° |
| 2026-04-27 16:37 | 50.85324 | 10.11785 | 16027 ft | 294 kts | 137° |
| 2026-04-27 16:38 | 50.83874 | 10.14036 | 16023 ft | 294 kts | 137° |
| 2026-04-27 16:38 | 50.82416 | 10.16308 | 16027 ft | 294 kts | 137° |
| 2026-04-27 16:38 | 50.80956 | 10.18577 | 16025 ft | 294 kts | 137° |
| 2026-04-27 16:38 | 50.79491 | 10.20849 | 16022 ft | 294 kts | 137° |
| 2026-04-27 16:39 | 50.78041 | 10.23100 | 16025 ft | 294 kts | 137° |
| 2026-04-27 16:39 | 50.76572 | 10.25375 | 16020 ft | 294 kts | 137° |
| 2026-04-27 16:39 | 50.75127 | 10.27613 | 16018 ft | 294 kts | 137° |
| 2026-04-27 16:39 | 50.73667 | 10.29873 | 16014 ft | 293 kts | 137° |
| 2026-04-27 16:40 | 50.72213 | 10.32121 | 16011 ft | 293 kts | 137° |
| 2026-04-27 16:40 | 50.70743 | 10.34390 | 16010 ft | 294 kts | 137° |
| 2026-04-27 16:40 | 50.69299 | 10.36616 | 16014 ft | 294 kts | 137° |
| 2026-04-27 16:40 | 50.67826 | 10.38884 | 16010 ft | 294 kts | 137° |
| 2026-04-27 16:41 | 50.66361 | 10.41144 | 16011 ft | 294 kts | 137° |
| 2026-04-27 16:41 | 50.64914 | 10.43371 | 16014 ft | 294 kts | 137° |
| 2026-04-27 16:41 | 50.63446 | 10.45626 | 16006 ft | 294 kts | 137° |
| 2026-04-27 16:41 | 50.61976 | 10.47882 | 16008 ft | 294 kts | 137° |
| 2026-04-27 16:42 | 50.60510 | 10.50133 | 16005 ft | 294 kts | 137° |
| 2026-04-27 16:42 | 50.59066 | 10.52351 | 16013 ft | 293 kts | 137° |
| 2026-04-27 16:42 | 50.57597 | 10.54599 | 16004 ft | 293 kts | 137° |
| 2026-04-27 16:42 | 50.56136 | 10.56833 | 16006 ft | 293 kts | 137° |
| 2026-04-27 16:43 | 50.54670 | 10.59074 | 16006 ft | 293 kts | 137° |
| 2026-04-27 16:43 | 50.53225 | 10.61283 | 16004 ft | 293 kts | 137° |
| 2026-04-27 16:43 | 50.51755 | 10.63524 | 16002 ft | 293 kts | 137° |
| 2026-04-27 16:43 | 50.50287 | 10.65760 | 16001 ft | 293 kts | 137° |
| 2026-04-27 16:44 | 50.48836 | 10.67972 | 16000 ft | 293 kts | 137° |
| 2026-04-27 16:44 | 50.47370 | 10.70204 | 15998 ft | 293 kts | 137° |
| 2026-04-27 16:44 | 50.45902 | 10.72436 | 16000 ft | 293 kts | 137° |
| 2026-04-27 16:44 | 50.44436 | 10.74660 | 15997 ft | 293 kts | 137° |
| 2026-04-27 16:45 | 50.42973 | 10.76879 | 15996 ft | 293 kts | 137° |
| 2026-04-27 16:45 | 50.41519 | 10.79085 | 15999 ft | 293 kts | 137° |
| 2026-04-27 16:45 | 50.40058 | 10.81299 | 15996 ft | 293 kts | 137° |
| 2026-04-27 16:45 | 50.38578 | 10.83537 | 15995 ft | 294 kts | 137° |
| 2026-04-27 16:46 | 50.37107 | 10.85762 | 15997 ft | 294 kts | 137° |
| 2026-04-27 16:46 | 50.35648 | 10.87967 | 15997 ft | 294 kts | 137° |
| 2026-04-27 16:46 | 50.34186 | 10.90174 | 15994 ft | 293 kts | 137° |
| 2026-04-27 16:46 | 50.32708 | 10.92400 | 15995 ft | 293 kts | 137° |
| 2026-04-27 16:47 | 50.31230 | 10.94628 | 15990 ft | 294 kts | 137° |
| 2026-04-27 16:47 | 50.29776 | 10.96816 | 15987 ft | 294 kts | 137° |
| 2026-04-27 16:47 | 50.28299 | 10.99037 | 15984 ft | 294 kts | 138° |
| 2026-04-27 16:47 | 50.26839 | 11.01232 | 15985 ft | 293 kts | 137° |
| 2026-04-27 16:48 | 50.25370 | 11.03436 | 15987 ft | 293 kts | 138° |
| 2026-04-27 16:48 | 50.23894 | 11.05652 | 15987 ft | 293 kts | 138° |
| 2026-04-27 16:48 | 50.22417 | 11.07865 | 15984 ft | 293 kts | 138° |
| 2026-04-27 16:49 | 50.19477 | 11.12264 | 15982 ft | 293 kts | 138° |
| 2026-04-27 16:49 | 50.18018 | 11.14443 | 15983 ft | 293 kts | 138° |
| 2026-04-27 16:49 | 50.16543 | 11.16643 | 15979 ft | 293 kts | 138° |
| 2026-04-27 16:49 | 50.15124 | 11.18762 | 15983 ft | 293 kts | 138° |
| 2026-04-27 16:50 | 50.13649 | 11.20960 | 15984 ft | 293 kts | 138° |
| 2026-04-27 16:50 | 50.12183 | 11.23144 | 15981 ft | 293 kts | 138° |
| 2026-04-27 16:50 | 50.10705 | 11.25346 | 15975 ft | 293 kts | 138° |
| 2026-04-27 16:50 | 50.09236 | 11.27528 | 15976 ft | 293 kts | 138° |
| 2026-04-27 16:51 | 50.07745 | 11.29739 | 15979 ft | 293 kts | 138° |
| 2026-04-27 16:51 | 50.06286 | 11.31905 | 15976 ft | 293 kts | 138° |